Time;durP1;ratioP1;P1;durP2;ratioP2;P2;SDS_P1;SDS_P2;PMS_P1;PMS_P2;Temp;Humidity;BMP_temperature;BMP_pressure;BME280_temperature;BME280_humidity;BME280_pressure;Samples;Min_cycle;Max_cycle;Signal;HPM_P1;HPM_P2
2023/08/12 00:00:12;;;;;;;17.67;11.25;;;21.10;99.90;;;;;;5102912;27;45251;-72
2023/08/12 00:02:39;;;;;;;27.48;13.65;;;21.10;99.90;;;;;;5099283;27;45232;-73
2023/08/12 00:05:06;;;;;;;18.40;12.18;;;21.10;99.90;;;;;;5103219;27;45145;-73
2023/08/12 00:07:33;;;;;;;20.10;12.27;;;21.10;99.90;;;;;;5096025;27;47427;-73
2023/08/12 00:10:00;;;;;;;22.83;12.88;;;21.10;99.90;;;;;;5113380;27;45238;-73
2023/08/12 00:12:29;;;;;;;20.98;12.77;;;21.10;99.90;;;;;;5103103;27;45281;-72
2023/08/12 00:14:56;;;;;;;21.25;12.70;;;21.10;99.90;;;;;;5111864;27;45731;-73
2023/08/12 00:17:23;;;;;;;19.13;12.82;;;21.10;99.90;;;;;;5106669;27;45426;-72
2023/08/12 00:19:50;;;;;;;20.63;12.27;;;21.10;99.90;;;;;;5094103;27;45254;-73
2023/08/12 00:22:16;;;;;;;20.67;12.98;;;21.10;99.90;;;;;;5092454;27;45103;-73
2023/08/12 00:24:44;;;;;;;20.25;12.60;;;21.10;99.90;;;;;;5097436;27;45307;-72
2023/08/12 00:27:11;;;;;;;16.27;11.35;;;21.10;99.90;;;;;;5092181;27;48442;-72
2023/08/12 00:29:39;;;;;;;21.38;12.68;;;21.10;99.90;;;;;;5092704;27;45933;-73
2023/08/12 00:32:06;;;;;;;19.67;12.10;;;21.00;99.90;;;;;;5103016;27;45342;-72
2023/08/12 00:34:33;;;;;;;19.85;12.65;;;21.10;99.90;;;;;;5089314;27;45423;-73
2023/08/12 00:37:00;;;;;;;20.15;11.43;;;21.10;99.90;;;;;;5091549;27;46640;-73
2023/08/12 00:39:27;;;;;;;19.23;12.80;;;21.10;99.90;;;;;;5100108;27;45162;-72
2023/08/12 00:41:53;;;;;;;23.92;12.45;;;21.10;99.90;;;;;;5094541;27;45338;-73
2023/08/12 00:44:20;;;;;;;19.15;12.57;;;21.10;99.90;;;;;;5111261;27;45240;-73
2023/08/12 00:46:49;;;;;;;18.17;12.10;;;21.10;99.90;;;;;;5106490;27;45309;-73
2023/08/12 00:49:16;;;;;;;21.17;13.63;;;21.10;99.90;;;;;;5087161;27;45366;-72
2023/08/12 00:51:46;;;;;;;19.83;13.20;;;21.10;99.90;;;;;;5099759;27;45150;-73
2023/08/12 00:54:15;;;;;;;21.20;12.68;;;21.10;99.90;;;;;;5100142;27;45192;-73
2023/08/12 00:56:42;;;;;;;21.25;13.48;;;21.10;99.90;;;;;;5098643;27;47477;-73
2023/08/12 00:59:10;;;;;;;19.50;12.52;;;21.10;99.90;;;;;;5098062;27;45179;-73
2023/08/12 01:01:40;;;;;;;17.92;12.48;;;21.10;99.90;;;;;;5102479;27;45279;-73
2023/08/12 01:04:08;;;;;;;25.85;14.93;;;21.10;99.90;;;;;;5105677;27;45319;-72
2023/08/12 01:06:36;;;;;;;21.20;13.85;;;21.10;99.90;;;;;;5105823;27;45152;-72
2023/08/12 01:09:05;;;;;;;19.90;12.00;;;21.10;99.90;;;;;;5102889;27;45185;-72
2023/08/12 01:11:39;;;;;;;18.77;12.90;;;21.10;99.90;;;;;;5107635;27;45234;-72
2023/08/12 01:14:13;;;;;;;19.48;13.00;;;21.10;99.90;;;;;;5097228;27;45204;-72
2023/08/12 01:16:44;;;;;;;20.20;13.43;;;21.10;99.90;;;;;;5099565;27;45466;-72
2023/08/12 01:19:24;;;;;;;21.65;12.85;;;21.10;99.90;;;;;;5102194;27;45662;-72
2023/08/12 01:21:53;;;;;;;20.88;13.43;;;21.10;99.90;;;;;;5100613;27;45290;-73
2023/08/12 01:24:22;;;;;;;17.48;12.60;;;21.10;99.90;;;;;;5103814;27;45364;-72
2023/08/12 01:26:49;;;;;;;20.83;13.30;;;21.10;99.90;;;;;;5114179;27;47283;-72
2023/08/12 01:29:16;;;;;;;20.60;13.75;;;21.10;99.90;;;;;;5105837;27;45177;-72
2023/08/12 01:31:49;;;;;;;21.20;13.75;;;21.10;99.90;;;;;;5103616;27;45196;-72
2023/08/12 01:34:22;;;;;;;19.20;10.98;;;21.00;99.90;;;;;;5105752;27;45118;-72
2023/08/12 01:36:56;;;;;;;21.42;11.55;;;21.10;99.90;;;;;;5117899;27;46291;-72
2023/08/12 01:39:26;;;;;;;21.80;12.43;;;21.10;99.90;;;;;;5112729;27;45135;-73
2023/08/12 01:41:54;;;;;;;18.40;12.85;;;21.10;99.90;;;;;;5105045;27;45304;-71
2023/08/12 01:44:21;;;;;;;20.83;13.00;;;21.10;99.90;;;;;;5104127;27;45534;-72
2023/08/12 01:46:49;;;;;;;18.02;11.07;;;21.10;99.90;;;;;;5104202;27;47015;-72
2023/08/12 01:49:16;;;;;;;16.80;11.10;;;21.00;99.90;;;;;;5104595;27;45151;-72
2023/08/12 01:51:43;;;;;;;19.33;12.50;;;21.10;99.90;;;;;;5104790;27;45358;-72
2023/08/12 01:54:10;;;;;;;16.42;12.23;;;21.10;99.90;;;;;;5107499;27;45278;-72
2023/08/12 01:56:38;;;;;;;19.80;11.85;;;21.10;99.90;;;;;;5110400;27;45215;-72
2023/08/12 01:59:05;;;;;;;15.13;10.35;;;21.10;99.90;;;;;;5109149;27;45109;-72
2023/08/12 02:01:32;;;;;;;20.67;13.10;;;21.10;99.90;;;;;;5104803;27;45193;-72
2023/08/12 02:03:58;;;;;;;14.23;10.48;;;21.10;99.90;;;;;;5114737;27;46568;-72
2023/08/12 02:06:25;;;;;;;24.73;12.35;;;21.10;99.90;;;;;;5104337;27;47996;-72
2023/08/12 02:08:52;;;;;;;23.08;13.77;;;21.10;99.90;;;;;;5105420;27;45117;-72
2023/08/12 02:11:18;;;;;;;21.10;12.77;;;21.00;99.90;;;;;;5105419;27;45312;-73
2023/08/12 02:13:47;;;;;;;19.25;12.68;;;21.10;99.90;;;;;;5105868;27;45611;-73
2023/08/12 02:16:13;;;;;;;17.00;10.63;;;21.10;99.90;;;;;;5107759;27;46176;-72
2023/08/12 02:18:40;;;;;;;19.33;11.32;;;21.10;99.90;;;;;;5105127;27;45149;-72
2023/08/12 02:21:07;;;;;;;18.80;11.02;;;21.10;99.90;;;;;;5105052;27;45122;-72
2023/08/12 02:23:34;;;;;;;16.73;11.25;;;21.10;99.90;;;;;;5113937;27;45415;-72
2023/08/12 02:26:02;;;;;;;15.93;10.60;;;21.10;99.90;;;;;;5105052;27;47307;-72
2023/08/12 02:28:28;;;;;;;14.48;9.45;;;21.10;99.90;;;;;;5105058;27;45199;-72
2023/08/12 02:30:57;;;;;;;14.10;8.70;;;21.10;99.90;;;;;;5104741;27;45118;-72
2023/08/12 02:33:23;;;;;;;17.08;10.80;;;21.10;99.90;;;;;;5108728;27;45303;-72
2023/08/12 02:35:54;;;;;;;12.50;8.75;;;21.00;99.90;;;;;;5111158;27;45440;-72
2023/08/12 02:38:20;;;;;;;15.68;9.00;;;21.10;99.90;;;;;;5104724;27;45649;-72
2023/08/12 02:40:49;;;;;;;12.93;8.32;;;21.00;99.90;;;;;;5106784;27;45218;-72
2023/08/12 02:43:16;;;;;;;13.10;7.63;;;21.10;99.90;;;;;;5107877;27;45430;-72
2023/08/12 02:45:43;;;;;;;15.40;8.43;;;21.00;99.90;;;;;;5113063;27;46355;-72
2023/08/12 02:48:12;;;;;;;14.38;8.25;;;21.00;99.90;;;;;;5103781;27;45208;-72
2023/08/12 02:50:39;;;;;;;18.10;8.90;;;21.10;99.90;;;;;;5103025;27;45474;-72
2023/08/12 02:53:06;;;;;;;16.58;8.93;;;21.10;99.90;;;;;;5103305;27;45332;-72
2023/08/12 02:55:33;;;;;;;14.23;8.52;;;21.10;99.90;;;;;;5107790;27;46291;-72
2023/08/12 02:58:00;;;;;;;13.18;8.07;;;21.10;99.90;;;;;;5104183;27;45118;-72
2023/08/12 03:00:27;;;;;;;11.18;7.47;;;21.10;99.90;;;;;;5104052;27;45135;-72
2023/08/12 03:02:54;;;;;;;14.35;9.90;;;21.10;99.90;;;;;;5105026;27;45587;-72
2023/08/12 03:05:22;;;;;;;15.93;9.82;;;21.10;99.90;;;;;;5107413;27;46042;-72
2023/08/12 03:07:49;;;;;;;12.77;7.70;;;21.10;99.90;;;;;;5103470;27;45772;-72
2023/08/12 03:10:16;;;;;;;12.80;8.07;;;21.10;99.90;;;;;;5105270;27;45125;-72
2023/08/12 03:12:43;;;;;;;22.00;10.57;;;21.10;99.90;;;;;;5103668;27;45332;-72
2023/08/12 03:15:11;;;;;;;15.48;9.88;;;21.00;99.90;;;;;;5110177;27;48488;-72
2023/08/12 03:17:39;;;;;;;15.75;9.23;;;21.00;99.90;;;;;;5109445;27;45093;-72
2023/08/12 03:20:08;;;;;;;15.25;9.02;;;21.00;99.90;;;;;;5099417;27;45165;-72
2023/08/12 03:22:36;;;;;;;15.70;9.50;;;21.00;99.90;;;;;;5114846;27;45319;-72
2023/08/12 03:25:04;;;;;;;16.70;8.50;;;21.00;99.90;;;;;;5100683;27;46340;-72
2023/08/12 03:27:30;;;;;;;14.65;9.27;;;21.10;99.90;;;;;;5107769;27;45197;-72
2023/08/12 03:29:57;;;;;;;17.30;9.02;;;21.00;99.90;;;;;;5108034;27;45077;-72
2023/08/12 03:32:24;;;;;;;14.52;8.57;;;21.00;99.90;;;;;;5108788;27;45173;-72
2023/08/12 03:34:51;;;;;;;14.98;8.10;;;21.00;99.90;;;;;;5100879;27;48419;-72
2023/08/12 03:37:18;;;;;;;14.82;8.13;;;21.00;99.90;;;;;;5117176;27;45209;-72
2023/08/12 03:39:46;;;;;;;17.58;8.45;;;21.00;99.90;;;;;;5111098;27;45172;-72
2023/08/12 03:42:14;;;;;;;10.82;7.80;;;21.10;99.90;;;;;;5102904;27;45146;-72
2023/08/12 03:44:41;;;;;;;13.18;8.10;;;21.10;99.90;;;;;;5103647;27;47202;-72
2023/08/12 03:47:07;;;;;;;13.50;8.43;;;21.10;99.90;;;;;;5111966;27;45201;-72
2023/08/12 03:49:34;;;;;;;11.73;7.68;;;21.10;99.90;;;;;;5115247;27;45081;-72
2023/08/12 03:52:01;;;;;;;13.50;9.18;;;21.10;99.90;;;;;;5102862;27;45256;-72
2023/08/12 03:54:28;;;;;;;14.15;8.40;;;21.00;99.90;;;;;;5102511;27;47467;-72
2023/08/12 03:56:56;;;;;;;14.45;8.73;;;21.10;99.90;;;;;;5098072;27;45383;-72
2023/08/12 03:59:23;;;;;;;17.10;9.30;;;21.10;99.90;;;;;;5102404;27;45204;-73
2023/08/12 04:01:50;;;;;;;17.33;9.05;;;21.10;99.90;;;;;;5100089;27;45231;-72
2023/08/12 04:04:17;;;;;;;14.32;9.75;;;21.10;99.90;;;;;;5108267;27;46387;-72
2023/08/12 04:06:43;;;;;;;14.25;8.38;;;21.00;99.90;;;;;;5104147;27;45197;-72
2023/08/12 04:09:10;;;;;;;15.80;9.15;;;21.00;99.90;;;;;;5109479;27;45218;-72
2023/08/12 04:11:37;;;;;;;17.85;9.30;;;21.00;99.90;;;;;;5107015;27;45242;-72
2023/08/12 04:14:05;;;;;;;11.80;9.15;;;21.10;99.90;;;;;;5103585;27;47275;-73
2023/08/12 04:16:32;;;;;;;13.30;8.38;;;21.10;99.90;;;;;;5113268;27;45232;-72
2023/08/12 04:18:58;;;;;;;16.00;9.77;;;21.00;99.90;;;;;;5102142;27;45272;-72
2023/08/12 04:21:25;;;;;;;16.45;10.07;;;21.10;99.90;;;;;;5103438;27;45346;-72
2023/08/12 04:23:52;;;;;;;17.58;10.43;;;21.00;99.90;;;;;;5109915;27;45324;-72
2023/08/12 04:26:19;;;;;;;17.67;9.35;;;21.10;99.90;;;;;;5102445;27;45292;-72
2023/08/12 04:28:46;;;;;;;15.90;10.18;;;21.00;99.90;;;;;;5103016;27;45210;-72
2023/08/12 04:31:14;;;;;;;12.82;8.95;;;21.00;99.90;;;;;;5102142;27;45094;-72
2023/08/12 04:33:41;;;;;;;17.67;11.55;;;21.00;99.90;;;;;;5101604;27;45248;-72
2023/08/12 04:36:08;;;;;;;17.30;11.45;;;21.00;99.90;;;;;;5103115;27;45245;-72
2023/08/12 04:38:35;;;;;;;13.27;8.38;;;21.00;99.90;;;;;;5103079;27;45262;-72
2023/08/12 04:41:02;;;;;;;14.77;9.57;;;21.00;99.90;;;;;;5102582;27;45280;-72
2023/08/12 04:43:29;;;;;;;15.57;9.48;;;21.00;99.90;;;;;;5102677;27;46253;-72
2023/08/12 04:45:55;;;;;;;16.65;9.23;;;21.00;99.90;;;;;;5104601;27;45112;-71
2023/08/12 04:48:24;;;;;;;23.73;10.60;;;21.10;99.90;;;;;;5101045;27;45057;-72
2023/08/12 04:50:50;;;;;;;17.02;11.35;;;21.00;99.90;;;;;;5101591;27;45400;-72
2023/08/12 04:53:17;;;;;;;18.55;11.43;;;21.00;99.90;;;;;;5102935;27;46395;-71
2023/08/12 04:55:44;;;;;;;16.85;9.98;;;21.10;99.90;;;;;;5096868;27;45046;-72
2023/08/12 04:58:11;;;;;;;16.02;10.60;;;21.10;99.90;;;;;;5107827;27;45186;-72
2023/08/12 05:00:37;;;;;;;14.20;10.23;;;21.00;99.90;;;;;;5102972;27;45385;-72
2023/08/12 05:03:05;;;;;;;17.42;11.15;;;21.10;99.90;;;;;;5101778;27;48852;-72
2023/08/12 05:05:34;;;;;;;20.50;10.75;;;21.10;99.90;;;;;;5093205;27;45281;-72
2023/08/12 05:08:01;;;;;;;15.63;10.73;;;21.10;99.90;;;;;;5103093;27;45207;-72
2023/08/12 05:10:28;;;;;;;20.40;12.13;;;21.10;99.90;;;;;;5102831;27;45437;-71
2023/08/12 05:12:55;;;;;;;20.85;13.18;;;21.10;99.90;;;;;;5102262;27;46237;-72
2023/08/12 05:15:22;;;;;;;18.45;11.85;;;21.10;99.90;;;;;;5102442;27;45152;-72
2023/08/12 05:17:49;;;;;;;16.95;10.93;;;21.10;99.90;;;;;;5103028;27;45119;-72
2023/08/12 05:20:16;;;;;;;17.13;10.52;;;21.10;99.90;;;;;;5096949;27;45378;-72
2023/08/12 05:22:44;;;;;;;18.88;11.38;;;21.10;99.90;;;;;;5094261;27;46519;-72
2023/08/12 05:25:11;;;;;;;13.50;8.88;;;21.10;99.90;;;;;;5102941;27;45249;-72
2023/08/12 05:27:38;;;;;;;15.95;10.73;;;21.10;99.90;;;;;;5102161;27;45249;-73
2023/08/12 05:30:06;;;;;;;14.10;9.85;;;21.10;99.90;;;;;;5106596;27;45047;-72
2023/08/12 05:32:32;;;;;;;23.23;12.38;;;21.10;99.90;;;;;;5101475;27;48087;-72
2023/08/12 05:34:59;;;;;;;17.08;10.38;;;21.10;99.90;;;;;;5102839;27;45100;-72
2023/08/12 05:37:26;;;;;;;18.45;11.00;;;21.10;99.90;;;;;;5102258;27;45210;-72
2023/08/12 05:39:54;;;;;;;19.60;12.38;;;21.10;99.90;;;;;;5102085;27;45067;-72
2023/08/12 05:42:21;;;;;;;19.83;10.77;;;21.10;99.90;;;;;;5108204;27;47147;-72
2023/08/12 05:44:48;;;;;;;16.85;12.00;;;21.10;99.90;;;;;;5105851;27;45191;-72
2023/08/12 05:47:15;;;;;;;18.20;11.55;;;21.10;99.90;;;;;;5106219;27;45081;-72
2023/08/12 05:49:42;;;;;;;16.40;11.32;;;21.10;99.90;;;;;;5104999;27;45201;-72
2023/08/12 05:52:08;;;;;;;19.45;10.88;;;21.00;99.90;;;;;;5105421;27;47131;-72
2023/08/12 05:54:35;;;;;;;17.63;12.25;;;21.00;99.90;;;;;;5105753;27;45176;-72
2023/08/12 05:57:03;;;;;;;18.02;11.88;;;21.00;99.90;;;;;;5105568;27;45414;-72
2023/08/12 05:59:30;;;;;;;14.90;9.25;;;21.00;99.90;;;;;;5105726;27;45237;-72
2023/08/12 06:01:57;;;;;;;16.85;11.35;;;21.00;99.90;;;;;;5104719;27;45244;-72
2023/08/12 06:04:24;;;;;;;20.25;11.80;;;21.10;99.90;;;;;;5105413;27;45216;-72
2023/08/12 06:06:51;;;;;;;17.35;9.98;;;21.10;99.90;;;;;;5105954;27;45325;-72
2023/08/12 06:09:18;;;;;;;19.02;12.13;;;21.10;99.90;;;;;;5122329;27;45117;-72
2023/08/12 06:11:45;;;;;;;14.07;10.38;;;21.10;99.90;;;;;;5095780;27;47087;-73
2023/08/12 06:14:13;;;;;;;13.57;9.75;;;21.00;99.90;;;;;;5108221;27;45270;-72
2023/08/12 06:16:39;;;;;;;16.55;11.20;;;21.00;99.90;;;;;;5109108;27;45140;-72
2023/08/12 06:19:06;;;;;;;15.43;9.20;;;21.00;99.90;;;;;;5104984;27;45263;-72
2023/08/12 06:21:33;;;;;;;20.13;11.35;;;21.00;99.90;;;;;;5104903;27;46103;-72
2023/08/12 06:24:00;;;;;;;22.80;11.15;;;21.00;99.90;;;;;;5106943;27;45852;-72
2023/08/12 06:26:27;;;;;;;18.23;10.90;;;21.00;99.90;;;;;;5106715;27;45083;-72
2023/08/12 06:28:54;;;;;;;16.45;10.27;;;21.00;99.90;;;;;;5105465;27;45264;-72
2023/08/12 06:31:22;;;;;;;18.50;11.77;;;21.00;99.90;;;;;;5094360;27;47469;-73
2023/08/12 06:33:48;;;;;;;17.92;10.77;;;21.00;99.90;;;;;;5103515;27;45223;-72
2023/08/12 06:36:15;;;;;;;17.50;10.65;;;21.00;99.90;;;;;;5100946;27;45283;-72
2023/08/12 06:38:42;;;;;;;15.15;9.68;;;20.90;99.90;;;;;;5107271;27;45408;-74
2023/08/12 06:41:09;;;;;;;17.30;9.68;;;21.00;99.90;;;;;;5108412;27;46258;-73
2023/08/12 06:43:36;;;;;;;11.90;7.53;;;20.90;99.90;;;;;;5105048;27;45202;-72
2023/08/12 06:46:02;;;;;;;10.63;7.32;;;21.00;99.90;;;;;;5108442;27;45151;-73
2023/08/12 06:48:31;;;;;;;9.40;6.18;;;21.00;99.90;;;;;;5104912;27;45141;-73
2023/08/12 06:50:58;;;;;;;11.38;6.28;;;21.00;99.90;;;;;;5102905;27;46359;-74
2023/08/12 06:53:26;;;;;;;9.50;6.10;;;21.00;99.90;;;;;;5102211;27;45164;-72
2023/08/12 06:55:52;;;;;;;7.35;5.93;;;21.00;99.90;;;;;;5101966;27;45241;-73
2023/08/12 06:58:19;;;;;;;10.35;6.35;;;21.00;99.90;;;;;;5107373;27;45123;-73
2023/08/12 07:00:46;;;;;;;7.53;4.72;;;21.00;99.90;;;;;;5105865;27;46704;-73
2023/08/12 07:03:12;;;;;;;4.20;3.17;;;21.00;99.90;;;;;;5105761;27;45651;-73
2023/08/12 07:05:41;;;;;;;2.88;2.20;;;21.20;99.90;;;;;;5108021;27;45205;-73
2023/08/12 07:08:07;;;;;;;4.63;2.50;;;21.60;99.90;;;;;;5110594;27;45208;-73
2023/08/12 07:10:34;;;;;;;2.72;2.00;;;21.70;99.90;;;;;;5107353;27;45258;-71
2023/08/12 07:13:01;;;;;;;7.15;4.28;;;21.80;99.90;;;;;;5106502;27;45279;-73
2023/08/12 07:15:28;;;;;;;11.13;5.47;;;21.70;99.90;;;;;;5104627;27;45290;-73
2023/08/12 07:17:54;;;;;;;5.63;4.20;;;21.40;99.90;;;;;;5104976;27;45103;-73
2023/08/12 07:20:21;;;;;;;5.25;4.20;;;21.20;99.90;;;;;;5105797;27;46403;-73
2023/08/12 07:22:49;;;;;;;9.68;5.20;;;21.20;99.90;;;;;;5104070;27;46294;-73
2023/08/12 07:25:16;;;;;;;8.18;5.18;;;21.10;99.90;;;;;;5104768;27;45192;-73
2023/08/12 07:27:43;;;;;;;6.95;4.53;;;21.10;99.90;;;;;;5102552;27;45324;-73
2023/08/12 07:30:11;;;;;;;8.25;4.95;;;21.10;99.90;;;;;;5101526;27;45284;-73
2023/08/12 07:32:39;;;;;;;6.28;4.28;;;21.10;99.90;;;;;;5105849;27;45189;-73
2023/08/12 07:35:07;;;;;;;7.55;3.90;;;21.10;99.90;;;;;;5104657;27;45134;-73
2023/08/12 07:37:33;;;;;;;6.68;4.15;;;21.10;99.90;;;;;;5104342;27;45129;-73
2023/08/12 07:40:03;;;;;;;5.47;3.80;;;21.10;99.90;;;;;;5100841;27;46499;-73
2023/08/12 07:42:30;;;;;;;4.68;3.63;;;21.10;99.90;;;;;;5102302;27;45240;-73
2023/08/12 07:44:56;;;;;;;8.55;4.03;;;21.00;99.90;;;;;;5103788;27;45352;-73
2023/08/12 07:47:23;;;;;;;4.93;3.70;;;21.00;99.90;;;;;;5098006;27;45384;-73
2023/08/12 07:49:50;;;;;;;3.30;2.10;;;21.10;99.90;;;;;;5100847;27;48273;-59
2023/08/12 07:52:17;;;;;;;2.15;1.55;;;21.30;99.90;;;;;;5100896;27;45139;-59
2023/08/12 07:54:43;;;;;;;2.45;1.50;;;21.60;99.90;;;;;;5103747;27;45128;-59
2023/08/12 07:57:11;;;;;;;3.58;1.60;;;21.80;99.90;;;;;;5114414;27;45580;-59
2023/08/12 07:59:38;;;;;;;1.80;1.38;;;22.00;99.90;;;;;;5106330;27;46236;-60
2023/08/12 08:02:05;;;;;;;1.63;1.52;;;22.10;99.90;;;;;;5101772;27;45450;-59
2023/08/12 08:04:32;;;;;;;2.33;1.55;;;22.20;99.90;;;;;;5102573;27;45106;-59
2023/08/12 08:06:59;;;;;;;1.73;1.45;;;22.20;99.90;;;;;;5103708;27;45086;-59
2023/08/12 08:09:25;;;;;;;1.83;1.25;;;22.30;99.90;;;;;;5102647;27;47049;-59
2023/08/12 08:11:52;;;;;;;1.77;1.35;;;22.30;99.90;;;;;;5101037;27;45272;-59
2023/08/12 08:14:20;;;;;;;2.10;1.50;;;22.30;99.90;;;;;;5101294;27;45177;-59
2023/08/12 08:16:47;;;;;;;1.60;1.23;;;22.40;99.90;;;;;;5100997;27;45516;-59
2023/08/12 08:19:14;;;;;;;1.88;1.38;;;22.40;99.90;;;;;;5103411;27;46538;-59
2023/08/12 08:21:41;;;;;;;2.10;1.50;;;22.40;99.90;;;;;;5102773;27;45272;-59
2023/08/12 08:24:11;;;;;;;2.33;1.42;;;22.40;99.90;;;;;;5103537;27;45184;-59
2023/08/12 08:26:37;;;;;;;1.90;1.50;;;22.40;99.90;;;;;;5101488;27;45236;-59
2023/08/12 08:29:04;;;;;;;1.73;1.30;;;22.40;99.90;;;;;;5099517;27;46194;-60
2023/08/12 08:31:33;;;;;;;1.95;1.27;;;22.40;99.90;;;;;;5097530;27;46303;-59
2023/08/12 08:33:59;;;;;;;2.83;1.70;;;22.40;99.90;;;;;;5103398;27;45325;-59
2023/08/12 08:36:26;;;;;;;2.72;1.83;;;22.40;99.90;;;;;;5106736;27;45328;-59
2023/08/12 08:38:53;;;;;;;1.83;1.65;;;22.40;99.90;;;;;;5101189;27;47094;-60
2023/08/12 08:41:21;;;;;;;2.72;1.30;;;22.40;99.90;;;;;;5101399;27;45279;-59
2023/08/12 08:43:49;;;;;;;1.77;1.27;;;22.40;99.90;;;;;;5102123;27;45199;-59
2023/08/12 08:46:17;;;;;;;2.28;1.35;;;22.40;99.90;;;;;;5103765;27;45136;-59
2023/08/12 08:48:45;;;;;;;3.92;2.67;;;22.40;99.90;;;;;;5105571;27;46449;-59
2023/08/12 08:51:12;;;;;;;2.30;1.80;;;22.40;99.90;;;;;;5099365;27;45296;-59
2023/08/12 08:53:40;;;;;;;1.50;1.30;;;22.40;99.90;;;;;;5103253;27;45145;-59
2023/08/12 08:56:11;;;;;;;2.83;1.50;;;22.40;99.90;;;;;;5091947;27;45337;-59
2023/08/12 08:58:38;;;;;;;2.90;1.45;;;22.40;99.90;;;;;;5088590;27;45430;-59
2023/08/12 09:01:07;;;;;;;1.95;1.20;;;22.40;99.90;;;;;;5091750;27;45477;-59
2023/08/12 09:03:36;;;;;;;1.90;1.50;;;22.40;99.90;;;;;;5101623;27;45156;-59
2023/08/12 09:06:04;;;;;;;1.17;1.08;;;22.40;99.90;;;;;;5105279;27;45355;-60
2023/08/12 09:08:32;;;;;;;1.92;1.23;;;22.40;99.90;;;;;;5103936;27;47994;-60
2023/08/12 09:11:02;;;;;;;2.63;1.30;;;22.40;99.90;;;;;;5101295;27;45166;-59
2023/08/12 09:13:29;;;;;;;1.33;1.15;;;22.40;99.90;;;;;;5100981;27;45303;-59
2023/08/12 09:15:57;;;;;;;1.83;1.38;;;22.40;99.90;;;;;;5103373;27;45154;-60
2023/08/12 09:18:24;;;;;;;1.20;1.10;;;22.40;99.90;;;;;;5104899;27;46354;-60
2023/08/12 09:20:50;;;;;;;1.60;1.30;;;22.40;99.90;;;;;;5103988;27;45359;-60
2023/08/12 09:23:19;;;;;;;1.65;1.27;;;22.40;99.90;;;;;;5103622;27;45330;-59
2023/08/12 09:25:46;;;;;;;1.40;1.13;;;22.40;99.90;;;;;;5104661;27;45447;-60
2023/08/12 09:28:13;;;;;;;1.50;1.30;;;22.40;99.90;;;;;;5105031;27;47265;-60
2023/08/12 09:30:40;;;;;;;1.65;1.15;;;22.40;99.90;;;;;;5105860;27;45726;-60
2023/08/12 09:33:10;;;;;;;2.03;1.13;;;22.40;99.90;;;;;;5105358;27;45287;-59
2023/08/12 09:35:39;;;;;;;2.50;1.25;;;22.40;99.90;;;;;;5107554;27;45143;-60
2023/08/12 09:38:07;;;;;;;2.47;1.30;;;22.40;99.90;;;;;;5098964;27;47442;-60
2023/08/12 09:40:36;;;;;;;1.90;1.20;;;22.40;99.90;;;;;;5099902;27;45408;-60
2023/08/12 09:43:04;;;;;;;1.52;1.20;;;22.40;99.90;;;;;;5105591;27;45070;-59
2023/08/12 09:45:31;;;;;;;1.60;1.05;;;22.40;99.90;;;;;;5106061;27;45209;-60
2023/08/12 09:47:58;;;;;;;1.40;1.05;;;22.40;99.90;;;;;;5106293;27;45168;-60
2023/08/12 09:50:26;;;;;;;2.13;1.00;;;22.40;99.90;;;;;;5105576;27;45174;-59
2023/08/12 09:52:54;;;;;;;1.20;0.90;;;22.40;99.90;;;;;;5106685;27;45122;-59
2023/08/12 09:55:22;;;;;;;1.75;1.20;;;22.40;99.90;;;;;;5105762;27;45449;-60
2023/08/12 09:57:53;;;;;;;1.63;1.23;;;22.40;99.90;;;;;;5107970;27;45326;-60
2023/08/12 10:00:21;;;;;;;1.50;1.05;;;22.40;99.90;;;;;;5105928;27;45081;-60
2023/08/12 10:02:49;;;;;;;1.80;1.17;;;22.40;99.90;;;;;;5104445;27;45357;-60
2023/08/12 10:05:20;;;;;;;1.85;1.10;;;22.40;99.90;;;;;;5105705;27;45264;-60
2023/08/12 10:07:48;;;;;;;1.45;1.08;;;22.40;99.90;;;;;;5094623;27;46288;-60
2023/08/12 10:10:15;;;;;;;1.25;0.98;;;22.40;99.90;;;;;;5102812;27;45311;-60
2023/08/12 10:12:42;;;;;;;2.17;1.17;;;22.40;99.90;;;;;;5113242;27;45277;-60
2023/08/12 10:15:11;;;;;;;1.52;0.82;;;22.40;99.90;;;;;;5106128;27;45351;-60
2023/08/12 10:17:40;;;;;;;1.50;1.25;;;22.40;99.90;;;;;;5105186;27;47481;-60
2023/08/12 10:20:09;;;;;;;1.42;1.20;;;22.40;99.90;;;;;;5110718;27;45268;-59
2023/08/12 10:22:38;;;;;;;2.53;1.27;;;22.40;99.90;;;;;;5110584;27;45347;-60
2023/08/12 10:25:07;;;;;;;1.58;0.95;;;22.40;99.90;;;;;;5105559;27;45138;-60
2023/08/12 10:27:34;;;;;;;1.27;1.00;;;22.40;99.90;;;;;;5104453;27;48338;-60
2023/08/12 10:30:04;;;;;;;3.55;1.08;;;22.40;99.90;;;;;;5104768;27;45203;-60
2023/08/12 10:32:32;;;;;;;1.67;1.17;;;22.40;99.90;;;;;;5103812;27;45101;-59
2023/08/12 10:35:00;;;;;;;0.90;0.85;;;22.40;99.90;;;;;;5103607;27;45422;-60
2023/08/12 10:37:27;;;;;;;1.30;0.98;;;22.40;99.90;;;;;;5103472;27;46238;-60
2023/08/12 10:39:54;;;;;;;1.40;0.90;;;22.40;99.90;;;;;;5105199;27;45158;-60
2023/08/12 10:42:43;;;;;;;1.40;1.10;;;22.40;99.90;;;;;;5108591;27;45262;-59
2023/08/12 10:45:11;;;;;;;1.98;0.90;;;22.40;99.90;;;;;;5103123;27;45553;-59
2023/08/12 10:47:44;;;;;;;1.50;0.90;;;22.30;99.90;;;;;;5104471;27;46484;-60
2023/08/12 10:50:20;;;;;;;0.93;0.80;;;22.40;99.90;;;;;;5111309;27;45241;-59
2023/08/12 10:52:48;;;;;;;1.90;0.88;;;22.40;99.90;;;;;;5103488;27;45356;-60
2023/08/12 10:55:19;;;;;;;1.17;1.02;;;22.30;99.90;;;;;;5105115;27;45221;-60
2023/08/12 10:57:46;;;;;;;2.55;1.20;;;22.30;99.90;;;;;;5112624;27;47072;-59
2023/08/12 11:00:15;;;;;;;1.00;0.90;;;22.40;99.90;;;;;;5104467;27;46118;-59
2023/08/12 11:02:46;;;;;;;1.00;0.90;;;22.40;99.90;;;;;;5103592;27;45302;-59
2023/08/12 11:05:14;;;;;;;1.35;0.90;;;22.40;99.90;;;;;;5104989;27;45266;-59
2023/08/12 11:07:43;;;;;;;0.80;0.80;;;22.40;99.90;;;;;;5102216;27;47607;-60
2023/08/12 11:10:14;;;;;;;0.90;0.65;;;22.40;99.90;;;;;;5104099;27;45226;-59
2023/08/12 11:12:43;;;;;;;1.13;0.90;;;22.30;99.90;;;;;;5102943;27;45133;-60
2023/08/12 11:15:11;;;;;;;1.38;0.90;;;22.40;99.90;;;;;;5104775;27;45228;-59
2023/08/12 11:17:39;;;;;;;0.80;0.73;;;22.30;99.90;;;;;;5103958;27;47960;-60
2023/08/12 11:20:09;;;;;;;1.95;0.93;;;22.30;99.90;;;;;;5104095;27;45140;-60
2023/08/12 11:22:38;;;;;;;1.05;0.75;;;22.40;99.90;;;;;;5103779;27;45238;-59
2023/08/12 11:25:08;;;;;;;1.00;0.90;;;22.40;99.90;;;;;;5103500;27;45245;-60
2023/08/12 11:27:39;;;;;;;0.65;0.65;;;22.30;99.90;;;;;;5103978;27;47185;-60
2023/08/12 11:30:07;;;;;;;1.13;0.90;;;22.30;99.90;;;;;;5104258;27;45115;-60
2023/08/12 11:32:34;;;;;;;1.98;1.05;;;22.40;99.90;;;;;;5089092;27;45232;-60
2023/08/12 11:35:03;;;;;;;1.23;0.80;;;22.40;99.90;;;;;;5104687;27;45077;-60
2023/08/12 11:37:32;;;;;;;0.95;0.70;;;22.30;99.90;;;;;;5101476;27;47488;-60
2023/08/12 11:39:58;;;;;;;0.73;0.60;;;22.30;99.90;;;;;;5092628;27;45259;-59
2023/08/12 11:42:25;;;;;;;0.77;0.63;;;22.30;99.90;;;;;;5096873;27;45160;-60
2023/08/12 11:44:52;;;;;;;1.10;0.80;;;22.40;99.90;;;;;;5096087;27;45256;-60
2023/08/12 11:47:19;;;;;;;0.75;0.75;;;22.40;99.90;;;;;;5111379;27;47703;-60
2023/08/12 11:49:46;;;;;;;1.05;0.90;;;22.30;99.90;;;;;;5101485;27;45205;-59
2023/08/12 11:52:13;;;;;;;1.33;0.70;;;22.30;99.90;;;;;;5100618;27;45160;-60
2023/08/12 11:54:41;;;;;;;0.90;0.90;;;22.30;99.90;;;;;;5103182;27;45166;-60
2023/08/12 11:57:08;;;;;;;0.70;0.70;;;22.40;99.90;;;;;;5106204;27;45239;-60
2023/08/12 11:59:36;;;;;;;0.50;0.50;;;22.40;99.90;;;;;;5097624;27;45790;-59
2023/08/12 12:02:04;;;;;;;2.05;0.60;;;22.40;99.90;;;;;;5102965;27;45138;-59
2023/08/12 12:04:32;;;;;;;0.70;0.70;;;22.30;99.90;;;;;;5104455;27;45090;-60
2023/08/12 12:07:00;;;;;;;1.83;0.98;;;22.30;99.90;;;;;;5102665;27;45321;-60
2023/08/12 12:09:27;;;;;;;1.23;0.90;;;22.40;99.90;;;;;;5104662;27;45292;-60
2023/08/12 12:11:55;;;;;;;1.88;0.77;;;22.40;99.90;;;;;;5098729;27;45231;-59
2023/08/12 12:14:22;;;;;;;0.90;0.60;;;22.40;99.90;;;;;;5103690;27;45286;-59
2023/08/12 12:16:50;;;;;;;1.38;0.80;;;22.40;99.90;;;;;;5105090;27;45178;-59
2023/08/12 12:19:19;;;;;;;0.60;0.60;;;22.40;99.90;;;;;;5106816;27;46304;-59
2023/08/12 12:21:48;;;;;;;2.65;0.80;;;22.40;99.90;;;;;;5102769;27;45161;-60
2023/08/12 12:24:15;;;;;;;0.77;0.77;;;22.40;99.90;;;;;;5103383;27;45394;-60
2023/08/12 12:26:42;;;;;;;1.23;0.90;;;22.30;99.90;;;;;;5102828;27;48253;-59
2023/08/12 12:29:11;;;;;;;0.93;0.73;;;22.30;99.90;;;;;;5103466;27;45239;-60
2023/08/12 12:31:39;;;;;;;0.73;0.70;;;22.40;99.90;;;;;;5101650;27;45298;-60
2023/08/12 12:34:07;;;;;;;0.75;0.60;;;22.40;99.90;;;;;;5103765;27;45180;-59
2023/08/12 12:36:36;;;;;;;1.33;0.90;;;22.40;99.90;;;;;;5106226;27;46504;-60
2023/08/12 12:39:03;;;;;;;1.00;0.70;;;22.40;99.90;;;;;;5103649;27;45188;-59